createdAt,value
2018-11-23T00:00:52.218Z,5.00
2018-11-23T00:03:22.580Z,5.10
2018-11-23T00:05:52.990Z,5.10
2018-11-23T00:08:24.109Z,5.00
2018-11-23T00:10:54.432Z,5.10
2018-11-23T00:13:24.827Z,5.10
2018-11-23T00:15:55.199Z,5.00
2018-11-23T00:18:31.396Z,5.00
2018-11-23T00:21:01.778Z,5.10
2018-11-23T00:23:33.169Z,5.20
2018-11-23T00:26:03.571Z,5.20
2018-11-23T00:28:33.886Z,5.20
2018-11-23T00:31:04.216Z,5.20
2018-11-23T00:33:34.626Z,5.30
2018-11-23T00:36:05.001Z,5.30
2018-11-23T00:38:35.310Z,5.30
2018-11-23T00:41:06.431Z,5.30
2018-11-23T00:43:36.826Z,5.20
2018-11-23T00:46:29.458Z,5.20
2018-11-23T00:48:59.768Z,5.20
2018-11-23T00:51:30.084Z,5.20
2018-11-23T00:54:00.481Z,5.20
2018-11-23T00:56:30.860Z,5.20
2018-11-23T00:59:01.237Z,5.30
2018-11-23T01:01:31.620Z,5.20
2018-11-23T01:04:05.005Z,5.30
2018-11-23T01:06:35.379Z,5.30
2018-11-23T01:09:05.734Z,5.20
2018-11-23T01:11:36.862Z,5.20
2018-11-23T01:14:07.257Z,5.20
2018-11-23T01:16:37.645Z,5.10
2018-11-23T01:19:08.005Z,5.20
2018-11-23T01:22:01.545Z,5.20
2018-11-23T01:24:31.920Z,5.20
2018-11-23T01:27:02.242Z,5.10
2018-11-23T01:29:32.645Z,5.10
2018-11-23T01:32:10.334Z,5.10
2018-11-23T01:34:44.830Z,5.20
2018-11-23T01:37:15.214Z,5.30
2018-11-23T01:39:45.601Z,5.30
2018-11-23T01:42:16.007Z,5.30
2018-11-23T01:44:47.091Z,5.30
2018-11-23T01:47:17.470Z,5.30
2018-11-23T01:49:47.881Z,5.30
2018-11-23T01:52:18.243Z,5.30
2018-11-23T01:54:48.620Z,5.30
2018-11-23T01:57:19.030Z,5.30
2018-11-23T02:00:09.743Z,5.40
2018-11-23T02:02:40.155Z,5.30
2018-11-23T02:05:10.475Z,5.40
2018-11-23T02:10:31.727Z,5.40
2018-11-23T02:13:02.149Z,5.40
2018-11-23T02:15:32.473Z,5.40
2018-11-23T02:18:02.801Z,5.40
2018-11-23T02:20:37.228Z,5.40
2018-11-23T02:23:07.610Z,5.40
2018-11-23T02:25:37.973Z,5.30
2018-11-23T02:28:08.375Z,5.30
2018-11-23T02:30:38.758Z,5.40
2018-11-23T02:33:09.072Z,5.30
2018-11-23T02:35:39.523Z,5.30
2018-11-23T02:38:09.859Z,5.30
2018-11-23T02:40:40.179Z,5.30
2018-11-23T02:43:14.530Z,5.30
2018-11-23T02:45:44.825Z,5.30
2018-11-23T02:48:15.141Z,5.30
2018-11-23T02:50:46.315Z,5.30
2018-11-23T02:53:16.692Z,5.30
2018-11-23T02:55:47.062Z,5.20
2018-11-23T02:58:24.187Z,5.20
2018-11-23T03:00:54.570Z,5.20
2018-11-23T03:03:24.933Z,5.20
2018-11-23T03:05:55.276Z,5.20
2018-11-23T03:08:25.653Z,5.10
2018-11-23T03:10:55.975Z,5.10
2018-11-23T03:13:26.329Z,5.10
2018-11-23T03:16:16.005Z,5.20
2018-11-23T03:19:07.772Z,5.20
2018-11-23T03:21:38.089Z,5.10
2018-11-23T03:24:08.463Z,5.10
2018-11-23T03:26:38.853Z,4.90
2018-11-23T03:29:09.212Z,5.00
2018-11-23T03:31:39.537Z,5.00
2018-11-23T03:34:09.880Z,4.90
2018-11-23T03:36:46.403Z,5.00
2018-11-23T03:39:26.832Z,5.00
2018-11-23T03:41:57.190Z,5.00
2018-11-23T03:44:27.507Z,5.00
2018-11-23T03:46:57.922Z,4.90
2018-11-23T03:49:28.298Z,4.90
2018-11-23T03:51:58.681Z,5.00
2018-11-23T03:54:29.026Z,4.90
2018-11-23T03:57:00.167Z,4.90
2018-11-23T03:59:31.311Z,4.80
2018-11-23T04:02:02.722Z,4.80
2018-11-23T04:04:34.136Z,4.90
2018-11-23T04:07:04.491Z,4.90
2018-11-23T04:09:41.048Z,4.90
2018-11-23T04:12:11.365Z,4.80
2018-11-23T04:14:41.719Z,4.80
2018-11-23T04:17:12.129Z,4.80
2018-11-23T04:19:47.629Z,4.70
2018-11-23T04:22:19.272Z,4.80
2018-11-23T04:24:49.183Z,4.80
2018-11-23T04:27:19.561Z,4.80
2018-11-23T04:29:49.963Z,4.70
2018-11-23T04:32:21.043Z,4.80
2018-11-23T04:34:51.415Z,4.80
2018-11-23T04:37:21.823Z,4.80
2018-11-23T04:39:52.201Z,4.70
2018-11-23T04:42:22.578Z,4.70
2018-11-23T04:44:52.975Z,4.70
2018-11-23T04:47:29.495Z,4.80
2018-11-23T04:50:01.354Z,4.80
2018-11-23T04:52:30.970Z,4.80
2018-11-23T04:55:01.346Z,4.80
2018-11-23T04:57:39.075Z,4.70
2018-11-23T05:00:09.404Z,4.60
2018-11-23T05:02:39.724Z,4.70
2018-11-23T05:05:10.133Z,4.70
2018-11-23T05:07:40.506Z,4.70
2018-11-23T05:10:11.642Z,4.70
2018-11-23T05:12:42.039Z,4.70
2018-11-23T05:15:12.426Z,4.70
2018-11-23T05:17:42.790Z,4.60
2018-11-23T05:20:13.165Z,4.60
2018-11-23T05:22:44.561Z,4.50
2018-11-23T05:25:14.940Z,4.70
2018-11-23T05:27:45.282Z,4.70
2018-11-23T05:30:15.676Z,4.70
2018-11-23T05:32:46.822Z,4.50
2018-11-23T05:35:17.234Z,4.50
2018-11-23T05:37:47.650Z,4.70
2018-11-23T05:40:17.985Z,4.70
2018-11-23T05:42:48.390Z,4.70
2018-11-23T05:45:18.762Z,4.60
2018-11-23T05:47:49.894Z,4.50
2018-11-23T05:50:20.352Z,4.50
2018-11-23T05:52:50.608Z,4.50
2018-11-23T05:55:40.333Z,4.50
2018-11-23T05:58:11.488Z,4.50
2018-11-23T06:00:42.574Z,4.50
2018-11-23T06:03:34.393Z,4.40
2018-11-23T06:06:07.860Z,4.50
2018-11-23T06:08:38.229Z,4.60
2018-11-23T06:11:08.614Z,4.40
2018-11-23T06:13:38.994Z,4.60
2018-11-23T06:16:09.316Z,4.50
2018-11-23T06:18:39.666Z,4.50
2018-11-23T06:23:54.823Z,4.50
2018-11-23T06:26:25.206Z,4.40
2018-11-23T06:28:55.566Z,4.40
2018-11-23T06:31:33.438Z,4.60
2018-11-23T06:34:03.792Z,4.60
2018-11-23T06:36:40.334Z,4.50
2018-11-23T06:39:11.730Z,4.60
2018-11-23T06:41:49.289Z,4.50
2018-11-23T06:44:19.650Z,4.30
2018-11-23T06:46:50.032Z,4.40
2018-11-23T06:49:20.412Z,5.50
2018-11-23T06:51:50.781Z,4.80
2018-11-23T06:54:21.158Z,4.70
2018-11-23T06:56:51.576Z,4.50
2018-11-23T06:59:26.045Z,4.40
2018-11-23T07:01:56.458Z,4.40
2018-11-23T07:04:26.842Z,4.30
2018-11-23T07:06:57.214Z,4.20
2018-11-23T07:09:28.337Z,4.10
2018-11-23T07:11:58.694Z,4.10
2018-11-23T07:14:29.844Z,4.30
2018-11-23T07:17:01.017Z,4.10
2018-11-23T07:19:32.408Z,4.10
2018-11-23T07:22:02.719Z,4.20
2018-11-23T07:24:33.112Z,4.20
2018-11-23T07:27:03.502Z,4.00
2018-11-23T07:29:33.810Z,4.10
2018-11-23T07:32:04.213Z,3.90
2018-11-23T07:34:56.766Z,3.90
2018-11-23T07:37:27.161Z,3.90
2018-11-23T07:40:42.557Z,3.80
2018-11-23T07:43:12.956Z,4.00
2018-11-23T07:45:43.319Z,4.00
2018-11-23T07:48:33.089Z,3.90
2018-11-23T07:51:03.406Z,4.00
2018-11-23T07:53:34.021Z,3.90
2018-11-23T07:56:04.378Z,3.90
2018-11-23T07:58:34.738Z,4.00
2018-11-23T08:01:05.097Z,4.00
2018-11-23T08:03:43.230Z,4.00
2018-11-23T08:06:13.552Z,4.10
2018-11-23T08:08:43.865Z,4.00
2018-11-23T08:11:15.155Z,4.00
2018-11-23T08:13:45.528Z,4.10
2018-11-23T08:16:16.808Z,4.00
2018-11-23T08:18:52.172Z,3.90
2018-11-23T08:21:24.464Z,4.00
2018-11-23T08:23:54.824Z,4.00
2018-11-23T08:26:25.197Z,4.10
2018-11-23T08:28:55.547Z,3.90
2018-11-23T08:31:26.679Z,4.10
2018-11-23T08:33:57.064Z,4.10
2018-11-23T08:36:37.724Z,4.20
2018-11-23T08:39:10.075Z,4.10
2018-11-23T08:41:49.045Z,4.20
2018-11-23T08:44:39.831Z,4.40
2018-11-23T08:47:10.199Z,4.10
2018-11-23T08:49:40.577Z,3.90
2018-11-23T08:52:10.979Z,4.00
2018-11-23T08:54:42.064Z,4.10
2018-11-23T08:57:31.766Z,4.10
2018-11-23T09:00:08.655Z,4.00
2018-11-23T09:02:39.049Z,4.10
2018-11-23T09:05:14.535Z,4.20
2018-11-23T09:07:44.890Z,4.10
2018-11-23T09:10:15.337Z,4.10
2018-11-23T09:12:54.354Z,4.10
2018-11-23T09:15:30.498Z,4.40
2018-11-23T09:18:02.651Z,4.50
2018-11-23T09:20:33.014Z,4.50
2018-11-23T09:23:18.604Z,4.60
2018-11-23T09:25:48.972Z,4.70
2018-11-23T09:28:19.362Z,4.60
2018-11-23T09:30:50.757Z,4.60
2018-11-23T09:33:21.112Z,4.40
2018-11-23T09:35:51.462Z,4.50
2018-11-23T09:38:23.881Z,4.40
2018-11-23T09:40:54.250Z,4.40
2018-11-23T09:43:25.511Z,4.50
2018-11-23T09:46:03.605Z,4.60
2018-11-23T09:48:39.514Z,4.50
2018-11-23T09:51:09.884Z,4.50
2018-11-23T09:53:48.175Z,4.60
2018-11-23T09:56:19.536Z,4.70
2018-11-23T09:58:49.960Z,4.60
2018-11-23T10:01:26.400Z,4.60
2018-11-23T10:03:58.848Z,4.80
2018-11-23T10:06:29.197Z,4.80
2018-11-23T10:08:59.593Z,4.60
2018-11-23T10:11:34.005Z,4.50
2018-11-23T10:14:04.378Z,4.60
2018-11-23T10:16:34.753Z,4.60
2018-11-23T10:19:05.132Z,4.50
2018-11-23T10:21:35.498Z,4.60
2018-11-23T10:24:05.895Z,4.90
2018-11-23T10:26:38.342Z,4.70
2018-11-23T10:29:09.412Z,4.70
2018-11-23T10:31:39.810Z,4.70
2018-11-23T10:36:56.455Z,4.90
2018-11-23T10:39:26.822Z,4.90
2018-11-23T10:41:57.184Z,5.10
2018-11-23T10:44:27.583Z,4.80
2018-11-23T10:46:58.981Z,5.00
2018-11-23T10:49:29.300Z,5.00
2018-11-23T10:51:59.723Z,5.00
2018-11-23T10:54:30.079Z,5.10
2018-11-23T10:57:01.291Z,5.30
2018-11-23T10:59:32.396Z,5.00
2018-11-23T11:02:02.771Z,5.00
2018-11-23T11:04:34.166Z,5.20
2018-11-23T11:07:05.579Z,5.20
2018-11-23T11:09:35.964Z,5.00
2018-11-23T11:12:06.345Z,4.90
2018-11-23T11:14:37.515Z,5.00
2018-11-23T11:17:07.898Z,5.00
2018-11-23T11:19:38.287Z,5.00
2018-11-23T11:22:08.657Z,5.10
2018-11-23T11:24:40.063Z,5.30
2018-11-23T11:27:10.502Z,5.20
2018-11-23T11:29:42.959Z,5.40
2018-11-23T11:32:13.347Z,5.30
2018-11-23T11:34:44.418Z,5.20
2018-11-23T11:37:15.835Z,5.20
2018-11-23T11:39:46.307Z,5.20
2018-11-23T11:42:20.859Z,5.30
2018-11-23T11:44:51.243Z,5.30
2018-11-23T11:47:21.608Z,5.20
2018-11-23T11:49:54.658Z,5.20
2018-11-23T11:52:23.084Z,5.10
2018-11-23T11:54:53.439Z,5.10
2018-11-23T11:57:23.793Z,5.10
2018-11-23T11:59:54.188Z,5.20
2018-11-23T12:02:24.569Z,5.10
2018-11-23T12:05:02.134Z,5.00
2018-11-23T12:07:32.501Z,5.00
2018-11-23T12:10:22.979Z,5.10
2018-11-23T12:12:55.344Z,5.10
2018-11-23T12:15:25.712Z,5.10
2018-11-23T12:17:56.101Z,5.20
2018-11-23T12:20:26.428Z,5.10
2018-11-23T12:22:56.811Z,5.80
2018-11-23T12:25:27.197Z,5.50
2018-11-23T12:28:01.671Z,5.50
2018-11-23T12:30:32.788Z,5.20
2018-11-23T12:33:03.153Z,5.30
2018-11-23T12:35:33.539Z,5.30
2018-11-23T12:38:03.928Z,5.30
2018-11-23T12:40:40.448Z,5.10
2018-11-23T12:43:10.809Z,5.20
2018-11-23T12:45:43.774Z,5.30
2018-11-23T12:48:17.630Z,5.40
2018-11-23T12:51:08.126Z,5.30
2018-11-23T12:53:46.442Z,5.30
2018-11-23T12:56:38.859Z,5.50
2018-11-23T12:59:09.230Z,5.50
2018-11-23T13:01:39.549Z,5.60
2018-11-23T13:04:10.005Z,5.40
2018-11-23T13:06:40.335Z,5.50
2018-11-23T13:09:11.423Z,5.40
2018-11-23T13:11:49.237Z,5.40
2018-11-23T13:14:38.947Z,5.50
2018-11-23T13:17:09.332Z,5.50
2018-11-23T13:19:59.069Z,5.50
2018-11-23T13:22:30.213Z,5.30
2018-11-23T13:25:01.356Z,5.40
2018-11-23T13:27:35.291Z,5.50
2018-11-23T13:30:05.663Z,5.50
2018-11-23T13:32:36.023Z,5.50
2018-11-23T13:35:07.125Z,5.30
2018-11-23T13:37:37.479Z,5.30
2018-11-23T13:43:03.042Z,5.20
2018-11-23T13:45:33.360Z,5.30
2018-11-23T13:48:04.720Z,5.20
2018-11-23T13:50:35.090Z,5.20
2018-11-23T13:53:05.460Z,5.20
2018-11-23T13:55:35.822Z,5.20
2018-11-23T13:58:08.803Z,5.30
2018-11-23T14:00:40.198Z,5.30
2018-11-23T14:03:10.576Z,5.20
2018-11-23T14:05:42.009Z,5.20
2018-11-23T14:08:12.371Z,5.30
2018-11-23T14:11:01.811Z,5.20
2018-11-23T14:13:34.760Z,5.20
2018-11-23T14:16:05.127Z,5.20
2018-11-23T14:18:35.523Z,5.20
2018-11-23T14:21:07.911Z,5.00
2018-11-23T14:23:39.050Z,5.10
2018-11-23T14:26:14.906Z,5.10
2018-11-23T14:28:48.604Z,5.20
2018-11-23T14:31:21.912Z,5.20
2018-11-23T14:33:54.909Z,5.20
2018-11-23T14:36:26.363Z,5.30
2018-11-23T14:38:56.717Z,5.10
2018-11-23T14:41:36.865Z,5.20
2018-11-23T14:44:11.878Z,5.30
2018-11-23T14:46:42.282Z,5.20
2018-11-23T14:49:13.627Z,5.20
2018-11-23T14:51:46.576Z,5.10
2018-11-23T14:54:16.960Z,5.10
2018-11-23T14:56:48.264Z,5.10
2018-11-23T14:59:18.572Z,5.00
2018-11-23T15:02:08.294Z,5.10
2018-11-23T15:04:39.434Z,5.10
2018-11-23T15:07:09.750Z,5.10
2018-11-23T15:09:42.910Z,5.20
2018-11-23T15:12:19.228Z,5.20
2018-11-23T15:14:55.560Z,5.20
2018-11-23T15:17:28.529Z,5.10
2018-11-23T15:19:58.853Z,5.20
2018-11-23T15:22:33.308Z,5.20
2018-11-23T15:25:03.699Z,5.10
2018-11-23T15:27:43.931Z,5.10
2018-11-23T15:30:16.994Z,5.20
2018-11-23T15:32:50.743Z,5.20
2018-11-23T15:35:23.578Z,5.10
2018-11-23T15:40:37.719Z,5.30
2018-11-23T15:43:10.810Z,5.10
2018-11-23T15:45:41.170Z,5.20
2018-11-23T15:48:11.549Z,5.20
2018-11-23T15:50:43.969Z,5.10
2018-11-23T15:53:14.286Z,5.00
2018-11-23T15:55:45.393Z,5.10
2018-11-23T15:58:15.749Z,5.10
2018-11-23T16:00:46.117Z,5.20
2018-11-23T16:03:16.793Z,5.30
2018-11-23T16:05:47.490Z,5.20
2018-11-23T16:08:17.856Z,5.20
2018-11-23T16:10:48.261Z,5.30
2018-11-23T16:13:37.949Z,5.30
2018-11-23T16:16:11.006Z,5.80
2018-11-23T16:18:41.376Z,5.30
2018-11-23T16:21:25.809Z,5.20
2018-11-23T16:24:05.106Z,5.40
2018-11-23T16:26:35.496Z,5.30
2018-11-23T16:29:05.871Z,5.40
2018-11-23T16:31:36.184Z,5.40
2018-11-23T16:34:06.523Z,5.50
2018-11-23T16:36:36.896Z,5.50
2018-11-23T16:39:07.274Z,5.40
2018-11-23T16:41:37.649Z,5.50
2018-11-23T16:44:13.602Z,5.60
2018-11-23T16:46:46.613Z,5.60
2018-11-23T16:49:17.957Z,5.50
2018-11-23T16:51:48.277Z,5.50
2018-11-23T16:54:18.659Z,5.50
2018-11-23T16:56:52.598Z,5.50
2018-11-23T16:59:25.592Z,5.50
2018-11-23T17:01:58.690Z,5.60
2018-11-23T17:04:35.047Z,5.60
2018-11-23T17:07:12.726Z,5.60
2018-11-23T17:09:40.532Z,5.60
2018-11-23T17:12:11.923Z,5.50
2018-11-23T17:14:42.291Z,5.50
2018-11-23T17:17:15.244Z,5.50
2018-11-23T17:20:01.454Z,5.60
2018-11-23T17:22:39.717Z,5.60
2018-11-23T17:25:13.469Z,5.60
2018-11-23T17:28:04.257Z,5.60
2018-11-23T17:30:42.471Z,5.70
2018-11-23T17:33:12.856Z,5.80
2018-11-23T17:35:47.101Z,5.80
2018-11-23T17:38:20.205Z,5.70
2018-11-23T17:41:09.864Z,5.80
2018-11-23T17:43:40.250Z,5.70
2018-11-23T17:46:12.660Z,5.80
2018-11-23T17:48:46.723Z,5.70
2018-11-23T17:51:17.043Z,5.80
2018-11-23T17:53:48.433Z,5.80
2018-11-23T17:56:22.537Z,5.70
2018-11-23T17:58:53.665Z,5.80
2018-11-23T18:01:24.032Z,5.80
2018-11-23T18:03:57.411Z,5.70
2018-11-23T18:06:27.785Z,5.70
2018-11-23T18:09:04.085Z,5.70
2018-11-23T18:11:34.452Z,5.80
2018-11-23T18:14:04.817Z,5.90
2018-11-23T18:16:35.164Z,5.80
2018-11-23T18:19:05.538Z,5.80
2018-11-23T18:21:35.932Z,5.90
2018-11-23T18:24:07.089Z,5.70
2018-11-23T18:29:21.221Z,5.80
2018-11-23T18:31:51.584Z,5.80
2018-11-23T18:34:21.953Z,5.90
2018-11-23T18:36:52.299Z,5.80
2018-11-23T18:39:22.651Z,5.80
2018-11-23T18:41:52.960Z,5.90
2018-11-23T18:44:23.313Z,5.90
2018-11-23T18:46:54.683Z,5.90
2018-11-23T18:49:27.075Z,5.90
2018-11-23T18:51:59.507Z,5.80
2018-11-23T18:54:29.901Z,5.80
2018-11-23T18:57:03.016Z,5.90
2018-11-23T18:59:33.384Z,5.90
2018-11-23T19:02:13.726Z,5.90
2018-11-23T19:04:44.108Z,5.90
2018-11-23T19:07:14.466Z,5.90
2018-11-23T19:09:44.829Z,5.90
2018-11-23T19:12:19.316Z,5.90
2018-11-23T19:14:52.278Z,5.90
2018-11-23T19:17:23.405Z,5.90
2018-11-23T19:19:59.101Z,5.90
2018-11-23T19:22:29.496Z,5.90
2018-11-23T19:24:59.857Z,6.00
2018-11-23T19:27:30.264Z,6.00
2018-11-23T19:30:01.382Z,6.00
2018-11-23T19:32:34.633Z,6.00
2018-11-23T19:35:05.025Z,6.00
2018-11-23T19:37:36.104Z,6.00
2018-11-23T19:40:07.478Z,6.00
2018-11-23T19:42:41.584Z,6.00
2018-11-23T19:45:20.961Z,6.10
2018-11-23T19:47:54.002Z,6.00
2018-11-23T19:50:46.485Z,6.00
2018-11-23T19:53:22.815Z,6.10
2018-11-23T19:55:53.169Z,6.00
2018-11-23T19:58:25.967Z,6.00
2018-11-23T20:00:57.076Z,6.20
2018-11-23T20:03:34.546Z,6.20
2018-11-23T20:06:07.201Z,6.20
2018-11-23T20:08:37.583Z,6.10
2018-11-23T20:11:07.944Z,6.10
2018-11-23T20:13:39.117Z,6.10
2018-11-23T20:16:10.514Z,6.10
2018-11-23T20:18:40.864Z,6.10
2018-11-23T20:21:12.029Z,6.10
2018-11-23T20:26:24.154Z,6.10
2018-11-23T20:28:56.976Z,6.20
2018-11-23T20:31:27.345Z,6.20
2018-11-23T20:33:57.751Z,6.20
2018-11-23T20:36:28.079Z,6.20
2018-11-23T20:38:58.394Z,6.20
2018-11-23T20:41:28.809Z,6.20
2018-11-23T20:44:02.036Z,6.20
2018-11-23T20:46:35.019Z,6.20
2018-11-23T20:49:14.246Z,6.30
2018-11-23T20:51:44.654Z,6.30
2018-11-23T20:54:15.022Z,6.30
2018-11-23T20:56:45.400Z,6.30
2018-11-23T20:59:18.554Z,6.40
2018-11-23T21:01:48.874Z,6.40
2018-11-23T21:04:19.192Z,6.40
2018-11-23T21:06:49.586Z,6.40
2018-11-23T21:09:19.951Z,6.30
2018-11-23T21:11:59.355Z,6.40
2018-11-23T21:14:29.718Z,6.40
2018-11-23T21:17:00.036Z,6.40
2018-11-23T21:19:30.426Z,6.40
2018-11-23T21:22:03.411Z,6.40
2018-11-23T21:24:33.770Z,6.40
2018-11-23T21:27:16.530Z,6.60
2018-11-23T21:29:46.842Z,6.50
2018-11-23T21:32:21.796Z,6.60
2018-11-23T21:34:52.206Z,6.50
2018-11-23T21:37:22.569Z,6.40
2018-11-23T21:39:52.938Z,6.40
2018-11-23T21:42:23.325Z,6.40
2018-11-23T21:44:53.642Z,6.40
2018-11-23T21:47:24.000Z,6.50
2018-11-23T21:49:55.164Z,6.60
2018-11-23T21:52:25.543Z,6.50
2018-11-23T21:54:59.042Z,6.60
2018-11-23T21:57:29.435Z,6.60
2018-11-23T22:00:03.888Z,6.60
2018-11-23T22:02:34.254Z,6.70
2018-11-23T22:05:13.864Z,6.70
2018-11-23T22:07:44.248Z,6.70
2018-11-23T22:10:17.235Z,6.70
2018-11-23T22:12:47.546Z,6.70
2018-11-23T22:15:20.430Z,6.70
2018-11-23T22:17:53.461Z,6.70
2018-11-23T22:20:23.844Z,6.70
2018-11-23T22:22:54.246Z,6.70
2018-11-23T22:25:25.390Z,6.70
2018-11-23T22:27:56.529Z,6.70
2018-11-23T22:30:35.958Z,6.80
2018-11-23T22:33:06.319Z,6.80
2018-11-23T22:35:36.635Z,6.70
2018-11-23T22:38:12.529Z,6.80
2018-11-23T22:41:04.319Z,6.70
2018-11-23T22:43:40.448Z,6.70
2018-11-23T22:46:13.585Z,6.70
2018-11-23T22:48:43.941Z,6.70
2018-11-23T22:51:14.345Z,6.70
2018-11-23T22:53:47.418Z,6.80
2018-11-23T22:56:17.793Z,6.70
2018-11-23T22:58:51.495Z,6.80
2018-11-23T23:01:21.025Z,6.80
2018-11-23T23:03:54.413Z,6.70
2018-11-23T23:06:24.784Z,6.70
2018-11-23T23:09:00.625Z,6.70
2018-11-23T23:11:31.790Z,6.70
2018-11-23T23:14:02.107Z,6.70
2018-11-23T23:16:32.456Z,6.70
2018-11-23T23:19:23.227Z,6.80
2018-11-23T23:21:53.600Z,6.80
2018-11-23T23:24:23.965Z,6.80
2018-11-23T23:26:57.693Z,6.80
2018-11-23T23:29:30.776Z,6.70
2018-11-23T23:32:01.914Z,6.80
2018-11-23T23:37:18.252Z,6.80
2018-11-23T23:39:51.451Z,6.70
2018-11-23T23:42:23.852Z,6.80
2018-11-23T23:44:54.227Z,6.80
2018-11-23T23:47:24.621Z,6.80
2018-11-23T23:49:54.991Z,6.80
2018-11-23T23:52:25.362Z,6.80
2018-11-23T23:54:55.733Z,6.80
2018-11-23T23:57:26.103Z,6.80
